Weather at Toronto/Oshawa Executive Airport

Public forecast

Using degrees Celsius for public forecast. Weather courtesy of forecast.io.

Current aviation weather report (METAR) for Toronto/Oshawa Executive Airport

Retrieved 2021/09/27 15:00 UTC (24 minutes ago):

CYOO 271500Z AUTO 25008KT 220V280 9SM FEW110 20/15 A2975 RMK SLP077 DENSITY ALT 1300FT

Aviation forecast (TAF) for Toronto/Oshawa Executive Airport

Retrieved 2021/09/27 14:00 UTC (1 hour ago):

TAF CYOO 271340Z 2714/2802 VRB03KT P6SM BKN120 TEMPO 2714/2716 P6SM -SHRA BECMG 2714/2716 24012G22KT FM271600 24012G22KT P6SM BKN030 FM272300 35007KT P6SM -SHRA BKN025 RMK FCST BASED ON AUTO OBS NXT FCST BY 272000Z